Time;durP1;ratioP1;P1;durP2;ratioP2;P2;SDS_P1;SDS_P2;PMS_P1;PMS_P2;Temp;Humidity;BMP_temperature;BMP_pressure;BME280_temperature;BME280_humidity;BME280_pressure;Samples;Min_cycle;Max_cycle;Signal;HPM_P1;HPM_P2
2022/01/09 00:01:50;;;;;;;1.90;1.57;;;2.10;99.90;;;;;;4976000;28;20698;-78
2022/01/09 00:04:15;;;;;;;1.47;1.37;;;2.10;99.90;;;;;;4974265;28;20192;-79
2022/01/09 00:06:41;;;;;;;3.10;1.30;;;2.20;99.90;;;;;;4979028;28;20188;-78
2022/01/09 00:09:07;;;;;;;2.87;1.50;;;2.20;99.90;;;;;;4977322;28;20192;-77
2022/01/09 00:11:32;;;;;;;1.63;1.10;;;2.20;99.90;;;;;;4978510;28;20220;-79
2022/01/09 00:13:58;;;;;;;2.37;1.30;;;2.20;99.90;;;;;;4979015;28;21087;-77
2022/01/09 00:16:24;;;;;;;2.97;1.20;;;2.20;99.90;;;;;;4978609;28;20197;-78
2022/01/09 00:18:50;;;;;;;2.00;1.33;;;2.20;99.90;;;;;;4978500;28;20220;-78
2022/01/09 00:21:18;;;;;;;3.83;1.47;;;2.20;99.90;;;;;;4977522;28;20231;-78
2022/01/09 00:23:45;;;;;;;1.30;1.20;;;2.40;99.90;;;;;;4993102;28;20175;-79
2022/01/09 00:26:11;;;;;;;1.40;1.20;;;2.40;99.90;;;;;;4977680;28;20179;-78
2022/01/09 00:28:36;;;;;;;1.80;1.20;;;2.40;99.90;;;;;;4976598;28;20658;-78
2022/01/09 00:31:03;;;;;;;1.73;1.40;;;2.30;99.90;;;;;;4987256;28;20231;-78
2022/01/09 00:33:28;;;;;;;1.50;1.30;;;2.30;99.90;;;;;;4986994;28;20193;-79
2022/01/09 00:35:54;;;;;;;1.47;1.13;;;2.30;99.90;;;;;;5000459;28;20275;-79
2022/01/09 00:38:20;;;;;;;2.33;1.60;;;2.40;99.90;;;;;;5001485;28;20188;-78
2022/01/09 00:40:46;;;;;;;2.50;1.47;;;2.50;99.90;;;;;;4985025;28;20215;-79
2022/01/09 00:43:12;;;;;;;1.70;1.20;;;2.50;99.90;;;;;;4986560;28;20222;-79
2022/01/09 00:45:39;;;;;;;1.70;1.43;;;2.60;99.90;;;;;;4985225;28;20215;-79
2022/01/09 00:48:05;;;;;;;1.20;1.10;;;2.50;99.90;;;;;;4984555;28;20215;-79
2022/01/09 00:50:30;;;;;;;2.43;1.27;;;2.60;99.90;;;;;;4986300;28;20208;-79
2022/01/09 00:52:56;;;;;;;2.37;1.30;;;2.60;99.90;;;;;;4988424;28;20329;-78
2022/01/09 00:55:22;;;;;;;1.57;1.13;;;2.50;99.90;;;;;;4984725;28;20192;-78
2022/01/09 00:57:47;;;;;;;1.57;1.20;;;2.50;99.90;;;;;;4986150;28;20204;-78
2022/01/09 01:00:14;;;;;;;1.80;1.30;;;2.50;99.90;;;;;;4998689;28;20199;-78
2022/01/09 01:02:40;;;;;;;1.90;1.40;;;2.50;99.90;;;;;;4985229;28;20208;-79
2022/01/09 01:05:07;;;;;;;2.30;1.30;;;2.50;99.90;;;;;;4985158;28;20303;-78
2022/01/09 01:07:33;;;;;;;2.60;1.70;;;2.50;99.90;;;;;;4984923;28;20176;-79
2022/01/09 01:09:58;;;;;;;1.40;1.10;;;2.50;99.90;;;;;;5001600;28;20192;-79
2022/01/09 01:12:29;;;;;;;1.37;1.10;;;2.50;99.90;;;;;;4984533;28;20215;-78
2022/01/09 01:14:55;;;;;;;1.60;1.10;;;2.40;99.90;;;;;;5001963;28;20646;-78
2022/01/09 01:17:22;;;;;;;2.00;1.17;;;2.50;99.90;;;;;;4985071;28;20596;-79
2022/01/09 01:19:48;;;;;;;1.20;1.00;;;2.50;99.90;;;;;;4985317;28;20194;-79
2022/01/09 01:22:16;;;;;;;3.40;1.30;;;2.50;99.90;;;;;;4983291;28;20295;-79
2022/01/09 01:24:42;;;;;;;1.87;1.10;;;2.40;99.90;;;;;;5000305;28;20188;-78
2022/01/09 01:27:09;;;;;;;1.90;1.23;;;2.40;99.90;;;;;;4986077;28;20206;-79
2022/01/09 01:29:36;;;;;;;1.33;1.10;;;2.40;99.90;;;;;;4988369;28;20184;-77
2022/01/09 01:32:02;;;;;;;1.77;1.13;;;2.40;99.90;;;;;;4987319;28;20249;-79
2022/01/09 01:34:28;;;;;;;1.40;1.10;;;2.50;99.90;;;;;;4988591;28;20181;-78
2022/01/09 01:36:55;;;;;;;1.60;1.30;;;2.60;99.90;;;;;;5003412;28;20236;-77
2022/01/09 01:39:21;;;;;;;3.17;1.30;;;2.60;99.90;;;;;;4988151;28;20243;-77
2022/01/09 01:41:46;;;;;;;2.10;1.40;;;2.70;99.90;;;;;;4989522;28;20211;-76
2022/01/09 01:44:13;;;;;;;1.73;1.03;;;2.60;99.90;;;;;;4987853;28;20248;-77
2022/01/09 01:46:40;;;;;;;1.27;1.00;;;2.60;99.90;;;;;;4987043;28;20180;-77
2022/01/09 01:49:07;;;;;;;1.67;1.10;;;2.60;99.90;;;;;;4989270;28;20705;-77
2022/01/09 01:51:34;;;;;;;1.27;1.07;;;2.50;99.90;;;;;;4989168;28;20208;-77
2022/01/09 01:54:04;;;;;;;3.03;1.20;;;2.50;99.90;;;;;;4987566;28;20275;-77
2022/01/09 01:56:29;;;;;;;1.63;1.20;;;2.50;99.90;;;;;;4988114;28;20187;-77
2022/01/09 01:58:56;;;;;;;2.57;1.30;;;2.50;99.90;;;;;;4986147;28;20188;-78
2022/01/09 02:01:22;;;;;;;2.17;1.00;;;2.50;99.90;;;;;;4985556;28;20214;-77
2022/01/09 02:03:47;;;;;;;1.70;1.17;;;2.60;99.90;;;;;;5000744;28;20191;-77
2022/01/09 02:06:16;;;;;;;1.73;1.20;;;2.60;99.90;;;;;;5003970;28;20195;-77
2022/01/09 02:08:43;;;;;;;1.63;1.27;;;2.50;99.90;;;;;;4987658;28;20188;-77
2022/01/09 02:11:13;;;;;;;1.63;1.03;;;2.60;99.90;;;;;;4987950;28;20216;-77
2022/01/09 02:13:40;;;;;;;1.83;1.17;;;2.60;99.90;;;;;;5003432;28;20188;-77
2022/01/09 02:16:08;;;;;;;1.20;0.97;;;2.60;99.90;;;;;;5003007;28;20257;-78
2022/01/09 02:18:33;;;;;;;1.10;1.00;;;2.50;99.90;;;;;;4989077;28;20184;-78
2022/01/09 02:20:59;;;;;;;1.63;1.10;;;2.50;99.90;;;;;;4986623;28;20655;-78
2022/01/09 02:23:25;;;;;;;3.80;1.20;;;2.50;99.90;;;;;;4987722;28;20212;-77
2022/01/09 02:25:51;;;;;;;1.37;0.87;;;2.50;99.90;;;;;;4987392;28;20188;-77
2022/01/09 02:28:18;;;;;;;2.53;0.93;;;2.60;99.90;;;;;;4989358;28;20629;-79
2022/01/09 02:30:44;;;;;;;1.30;0.70;;;2.80;99.90;;;;;;5003625;28;20239;-77
2022/01/09 02:33:15;;;;;;;2.00;1.00;;;2.90;99.90;;;;;;4986395;28;20188;-77
2022/01/09 02:35:41;;;;;;;1.13;0.87;;;2.90;99.90;;;;;;4989927;28;20191;-77
2022/01/09 02:38:07;;;;;;;0.90;0.90;;;2.90;99.90;;;;;;5001919;28;20189;-77
2022/01/09 02:40:33;;;;;;;1.20;0.87;;;2.90;99.90;;;;;;4984613;28;20288;-77
2022/01/09 02:42:59;;;;;;;0.80;0.70;;;2.90;99.90;;;;;;4985012;28;20263;-77
2022/01/09 02:45:27;;;;;;;1.77;1.00;;;2.90;99.90;;;;;;4998592;28;20181;-78
2022/01/09 02:47:55;;;;;;;1.17;0.83;;;2.80;99.90;;;;;;4983605;28;20231;-76
2022/01/09 02:52:59;;;;;;;1.20;0.80;;;2.80;99.90;;;;;;4982975;28;20176;-79
2022/01/09 02:55:27;;;;;;;1.80;1.30;;;2.80;99.90;;;;;;4997693;28;20271;-77
2022/01/09 02:57:57;;;;;;;2.13;0.80;;;2.70;99.90;;;;;;4983184;28;20180;-78
2022/01/09 03:00:28;;;;;;;0.93;0.90;;;2.70;99.90;;;;;;4998659;28;20191;-77
2022/01/09 03:02:55;;;;;;;1.50;1.00;;;2.60;99.90;;;;;;4982126;28;20201;-77
2022/01/09 03:05:21;;;;;;;1.10;1.00;;;2.60;99.90;;;;;;4980216;28;20180;-77
2022/01/09 03:07:47;;;;;;;1.87;0.90;;;2.50;99.90;;;;;;4979948;28;20189;-77
2022/01/09 03:10:14;;;;;;;1.73;0.90;;;2.50;99.90;;;;;;4979169;28;20562;-77
2022/01/09 03:12:40;;;;;;;1.10;0.90;;;2.50;99.90;;;;;;4978420;28;20188;-77
2022/01/09 03:15:07;;;;;;;1.30;1.10;;;2.50;99.90;;;;;;4977458;28;20246;-77
2022/01/09 03:17:33;;;;;;;1.67;1.13;;;2.40;99.90;;;;;;4978377;28;20196;-77
2022/01/09 03:19:59;;;;;;;1.10;1.00;;;2.30;99.90;;;;;;4982456;28;20189;-77
2022/01/09 03:22:24;;;;;;;1.50;0.90;;;2.30;99.90;;;;;;4998172;28;20215;-77
2022/01/09 03:24:50;;;;;;;1.30;0.83;;;2.30;99.90;;;;;;4982921;28;20551;-77
2022/01/09 03:27:16;;;;;;;1.60;1.20;;;2.30;99.90;;;;;;4983342;28;20202;-78
2022/01/09 03:29:42;;;;;;;0.80;0.80;;;2.30;99.90;;;;;;4984241;28;20184;-78
2022/01/09 03:32:08;;;;;;;1.10;0.90;;;2.30;99.90;;;;;;4990121;28;20228;-77
2022/01/09 03:34:34;;;;;;;1.50;1.10;;;2.20;99.90;;;;;;5000548;28;20204;-76
2022/01/09 03:37:00;;;;;;;1.40;1.30;;;2.20;99.90;;;;;;4985350;28;20196;-78
2022/01/09 03:39:25;;;;;;;1.67;1.00;;;2.20;99.90;;;;;;4985128;28;20188;-78
2022/01/09 03:41:51;;;;;;;1.43;1.27;;;2.20;99.90;;;;;;4984398;28;20209;-77
2022/01/09 03:44:17;;;;;;;1.33;1.10;;;2.20;99.90;;;;;;4986538;28;21104;-77
2022/01/09 03:46:43;;;;;;;1.20;1.10;;;2.10;99.90;;;;;;4983589;28;20189;-77
2022/01/09 03:49:08;;;;;;;1.20;0.87;;;2.10;99.90;;;;;;4983189;28;20192;-77
2022/01/09 03:51:37;;;;;;;1.10;1.00;;;2.00;99.90;;;;;;4984704;28;20212;-77
2022/01/09 03:54:04;;;;;;;2.00;1.03;;;2.00;99.90;;;;;;4982352;28;20177;-77
2022/01/09 03:56:30;;;;;;;1.50;1.30;;;2.00;99.90;;;;;;4984171;28;20184;-77
2022/01/09 03:58:55;;;;;;;1.30;1.20;;;2.00;99.90;;;;;;4989859;28;20185;-78
2022/01/09 04:01:21;;;;;;;2.03;1.30;;;2.00;99.90;;;;;;4989854;28;20879;-77
2022/01/09 04:03:47;;;;;;;2.03;1.20;;;2.00;99.90;;;;;;4981591;28;20177;-77
2022/01/09 04:06:13;;;;;;;1.50;1.30;;;2.00;99.90;;;;;;4982102;28;20246;-79
2022/01/09 04:08:39;;;;;;;2.43;1.00;;;2.00;99.90;;;;;;4982570;28;20203;-77
2022/01/09 04:11:05;;;;;;;1.20;1.10;;;2.00;99.90;;;;;;4983876;28;20224;-77
2022/01/09 04:13:31;;;;;;;1.30;1.17;;;2.10;99.90;;;;;;4990036;28;20681;-77
2022/01/09 04:15:57;;;;;;;1.97;1.47;;;2.00;99.90;;;;;;4984640;28;20265;-78
2022/01/09 04:18:23;;;;;;;1.87;1.40;;;1.90;99.90;;;;;;4982710;28;20628;-77
2022/01/09 04:20:51;;;;;;;1.27;1.17;;;1.90;99.90;;;;;;4981139;28;20243;-76
2022/01/09 04:23:18;;;;;;;1.80;1.30;;;1.90;99.90;;;;;;4984105;28;20216;-77
2022/01/09 04:25:45;;;;;;;1.23;0.97;;;1.90;99.90;;;;;;4983234;28;20189;-76
2022/01/09 04:28:12;;;;;;;1.53;1.00;;;1.90;99.90;;;;;;4982686;28;20204;-77
2022/01/09 04:30:37;;;;;;;1.30;1.20;;;1.90;99.90;;;;;;4997124;28;20279;-77
2022/01/09 04:33:03;;;;;;;2.07;1.13;;;1.90;99.90;;;;;;4981470;28;20276;-77
2022/01/09 04:35:29;;;;;;;1.47;1.37;;;2.00;99.90;;;;;;4982793;28;20203;-77
2022/01/09 04:37:55;;;;;;;1.33;1.13;;;2.00;99.90;;;;;;4982516;28;20196;-78
2022/01/09 04:40:21;;;;;;;2.03;1.40;;;2.00;99.90;;;;;;4981485;28;20203;-78
2022/01/09 04:42:54;;;;;;;1.10;1.00;;;2.00;99.90;;;;;;4981015;28;20293;-77
2022/01/09 04:45:22;;;;;;;1.33;1.10;;;2.00;99.90;;;;;;4989599;28;20191;-77
2022/01/09 04:47:49;;;;;;;2.53;1.43;;;1.90;99.90;;;;;;4998745;28;20264;-77
2022/01/09 04:50:22;;;;;;;2.10;1.50;;;1.90;99.90;;;;;;4981682;28;20180;-77
2022/01/09 04:52:51;;;;;;;1.50;1.40;;;1.90;99.90;;;;;;4996818;28;20565;-78
2022/01/09 04:55:16;;;;;;;2.53;1.30;;;2.00;99.90;;;;;;4980455;28;20215;-78
2022/01/09 04:57:42;;;;;;;1.43;1.33;;;2.00;99.90;;;;;;4982859;28;20777;-78
2022/01/09 05:00:08;;;;;;;1.43;1.23;;;1.90;99.90;;;;;;4983183;28;20246;-77
2022/01/09 05:02:35;;;;;;;2.27;1.20;;;1.90;99.90;;;;;;4995349;28;20267;-77
2022/01/09 05:05:00;;;;;;;1.93;1.20;;;2.00;99.90;;;;;;4997472;28;20913;-77
2022/01/09 05:07:26;;;;;;;1.93;1.23;;;2.00;99.90;;;;;;4996304;28;20172;-77
2022/01/09 05:09:52;;;;;;;1.47;1.33;;;2.00;99.90;;;;;;4981210;28;20255;-77
2022/01/09 05:12:18;;;;;;;2.03;1.47;;;2.00;99.90;;;;;;4982025;28;20224;-77
2022/01/09 05:14:43;;;;;;;2.30;1.10;;;2.00;99.90;;;;;;4982473;28;20237;-77
2022/01/09 05:17:09;;;;;;;1.33;1.10;;;2.00;99.90;;;;;;4979588;28;20188;-78
2022/01/09 05:19:36;;;;;;;1.40;1.20;;;2.00;99.90;;;;;;4979333;28;20189;-77
2022/01/09 05:22:02;;;;;;;1.33;1.13;;;2.00;99.90;;;;;;4982046;28;20208;-77
2022/01/09 05:24:28;;;;;;;1.40;1.30;;;2.00;99.90;;;;;;4981285;28;20261;-77
2022/01/09 05:26:54;;;;;;;1.33;1.10;;;2.10;99.90;;;;;;4997398;28;20192;-78
2022/01/09 05:29:21;;;;;;;1.20;1.10;;;2.10;99.90;;;;;;4980035;28;20188;-77
2022/01/09 05:31:48;;;;;;;1.63;1.40;;;2.10;99.90;;;;;;4996652;28;20221;-77
2022/01/09 05:34:17;;;;;;;1.90;1.30;;;2.10;99.90;;;;;;4995407;28;20185;-79
2022/01/09 05:36:43;;;;;;;2.07;1.30;;;2.20;99.90;;;;;;4981641;28;20251;-77
2022/01/09 05:39:09;;;;;;;1.47;1.27;;;2.20;99.90;;;;;;4982114;28;20658;-78
2022/01/09 05:41:35;;;;;;;1.47;1.23;;;2.20;99.90;;;;;;4981029;28;20217;-77
2022/01/09 05:44:00;;;;;;;1.70;1.17;;;2.30;99.90;;;;;;4983582;28;20191;-78
2022/01/09 05:46:26;;;;;;;1.33;1.10;;;2.30;99.90;;;;;;4983151;28;20838;-77
2022/01/09 05:48:51;;;;;;;1.17;1.07;;;2.30;99.90;;;;;;4981405;28;20193;-77
2022/01/09 05:51:17;;;;;;;1.47;1.30;;;2.20;99.90;;;;;;4982087;28;20700;-77
2022/01/09 05:53:43;;;;;;;1.17;1.03;;;2.20;99.90;;;;;;4999301;28;20184;-77
2022/01/09 05:56:08;;;;;;;1.17;1.07;;;2.20;99.90;;;;;;4983412;28;20204;-77
2022/01/09 05:58:35;;;;;;;1.90;1.23;;;2.20;99.90;;;;;;4983310;28;20188;-76
2022/01/09 06:01:03;;;;;;;1.20;1.10;;;2.30;99.90;;;;;;4984218;28;20208;-77
2022/01/09 06:03:29;;;;;;;1.57;1.27;;;2.30;99.90;;;;;;4983666;28;20212;-78
2022/01/09 06:05:54;;;;;;;1.87;1.43;;;2.30;99.90;;;;;;4997573;28;20203;-77
2022/01/09 06:08:20;;;;;;;1.50;1.23;;;2.30;99.90;;;;;;4980954;28;20284;-77
2022/01/09 06:10:46;;;;;;;2.77;1.53;;;2.20;99.90;;;;;;4982050;28;20204;-77
2022/01/09 06:13:11;;;;;;;2.20;1.57;;;2.20;99.90;;;;;;4982767;28;20651;-78
2022/01/09 06:15:37;;;;;;;1.30;1.20;;;2.20;99.90;;;;;;4986517;28;20268;-77
2022/01/09 06:18:02;;;;;;;2.60;1.30;;;2.10;99.90;;;;;;4988006;28;20239;-77
2022/01/09 06:20:28;;;;;;;1.53;1.30;;;2.10;99.90;;;;;;5001416;28;20582;-77
2022/01/09 06:22:53;;;;;;;1.67;1.50;;;2.10;99.90;;;;;;4985388;28;20212;-76
2022/01/09 06:25:21;;;;;;;2.43;1.67;;;2.10;99.90;;;;;;4982452;28;20226;-78
2022/01/09 06:27:46;;;;;;;2.37;1.67;;;2.10;99.90;;;;;;4987307;28;20176;-77
2022/01/09 06:30:12;;;;;;;1.47;1.37;;;2.00;99.90;;;;;;4998222;28;20276;-77
2022/01/09 06:32:38;;;;;;;2.00;1.70;;;2.10;99.90;;;;;;4985866;28;20204;-77
2022/01/09 06:35:04;;;;;;;2.33;1.53;;;2.00;99.90;;;;;;4983335;28;20256;-77
2022/01/09 06:37:30;;;;;;;1.77;1.57;;;2.00;99.90;;;;;;4983270;28;20291;-77
2022/01/09 06:39:56;;;;;;;1.87;1.67;;;2.00;99.90;;;;;;4984908;28;20211;-78
2022/01/09 06:42:21;;;;;;;2.03;1.70;;;1.90;99.90;;;;;;4984162;28;20773;-77
2022/01/09 06:44:47;;;;;;;2.17;1.63;;;1.90;99.90;;;;;;4983886;28;20234;-77
2022/01/09 06:47:13;;;;;;;1.67;1.57;;;1.90;99.90;;;;;;4988291;28;20240;-77
2022/01/09 06:49:38;;;;;;;3.77;1.97;;;1.90;99.90;;;;;;4984728;28;20188;-78
2022/01/09 06:52:04;;;;;;;1.70;1.60;;;1.90;99.90;;;;;;4985488;28;20318;-79
2022/01/09 06:54:31;;;;;;;1.83;1.63;;;1.90;99.90;;;;;;5000100;28;20185;-77
2022/01/09 06:56:56;;;;;;;2.70;2.20;;;1.90;99.90;;;;;;4990401;28;20215;-78
2022/01/09 06:59:22;;;;;;;1.97;1.73;;;1.90;99.90;;;;;;4996506;28;20181;-78
2022/01/09 07:01:48;;;;;;;2.60;1.97;;;2.00;99.90;;;;;;4983207;28;20721;-77
2022/01/09 07:04:13;;;;;;;2.53;2.30;;;2.00;99.90;;;;;;4987112;28;20685;-77
2022/01/09 07:06:39;;;;;;;3.03;2.23;;;1.90;99.90;;;;;;4983939;28;20300;-78
2022/01/09 07:09:05;;;;;;;2.10;1.90;;;1.90;99.90;;;;;;4999738;28;20281;-79
2022/01/09 07:11:31;;;;;;;3.40;2.60;;;1.80;99.90;;;;;;4984631;28;20196;-79
2022/01/09 07:13:57;;;;;;;3.13;2.20;;;1.70;99.90;;;;;;4985023;28;20311;-79
2022/01/09 07:16:23;;;;;;;3.07;2.17;;;1.70;99.90;;;;;;5002108;28;20204;-79
2022/01/09 07:18:49;;;;;;;3.70;2.67;;;1.70;99.90;;;;;;4986042;28;20197;-78
2022/01/09 07:21:14;;;;;;;4.10;2.80;;;1.70;99.90;;;;;;4987792;28;20212;-78
2022/01/09 07:23:40;;;;;;;3.37;2.40;;;1.60;99.90;;;;;;4984411;28;20191;-78
2022/01/09 07:26:05;;;;;;;4.97;2.83;;;1.50;99.90;;;;;;4981891;28;20189;-79
2022/01/09 07:28:31;;;;;;;5.70;3.70;;;1.60;99.90;;;;;;4983985;28;20181;-79
2022/01/09 07:30:58;;;;;;;5.40;3.50;;;1.50;99.90;;;;;;4997303;28;20228;-78
2022/01/09 07:33:24;;;;;;;8.03;5.03;;;1.50;99.90;;;;;;4996980;28;20256;-79
2022/01/09 07:35:49;;;;;;;21.50;13.77;;;1.50;99.90;;;;;;4983875;28;20324;-78
2022/01/09 07:38:15;;;;;;;7.03;5.13;;;1.60;99.90;;;;;;4985028;28;20272;-79
2022/01/09 07:40:40;;;;;;;8.83;6.57;;;1.50;99.90;;;;;;4982226;28;20212;-78
2022/01/09 07:43:06;;;;;;;4.20;3.30;;;1.60;99.90;;;;;;4983353;28;20219;-79
2022/01/09 07:45:32;;;;;;;5.70;3.40;;;1.60;99.90;;;;;;4987000;28;20184;-78
2022/01/09 07:48:00;;;;;;;4.93;3.40;;;1.60;99.90;;;;;;4996834;28;20186;-78
2022/01/09 07:50:27;;;;;;;12.03;7.23;;;1.70;99.90;;;;;;4973495;28;20191;-79
2022/01/09 07:52:53;;;;;;;3.77;3.30;;;1.60;99.90;;;;;;4977347;28;20196;-78
2022/01/09 07:55:20;;;;;;;98.30;53.30;;;1.60;99.90;;;;;;4991276;28;20211;-79
2022/01/09 07:57:47;;;;;;;36.27;22.63;;;1.70;99.90;;;;;;4982490;28;20188;-79
2022/01/09 08:00:14;;;;;;;18.87;12.70;;;1.70;99.90;;;;;;4977738;28;20234;-80
2022/01/09 08:02:41;;;;;;;6.90;4.40;;;1.80;99.90;;;;;;4981937;28;20219;-80
2022/01/09 08:05:07;;;;;;;6.60;3.97;;;1.80;99.90;;;;;;4982850;28;20271;-79
2022/01/09 08:07:33;;;;;;;6.20;4.40;;;1.80;99.90;;;;;;4983257;28;20281;-79
2022/01/09 08:09:59;;;;;;;4.93;3.63;;;1.70;99.90;;;;;;4981030;28;20224;-79
2022/01/09 08:12:24;;;;;;;4.93;3.70;;;1.70;99.90;;;;;;4983094;28;20207;-79
2022/01/09 08:14:50;;;;;;;4.50;3.50;;;1.70;99.90;;;;;;4984028;28;20184;-78
2022/01/09 08:17:15;;;;;;;4.30;3.20;;;1.80;99.90;;;;;;4983524;28;20190;-79
2022/01/09 08:19:41;;;;;;;5.20;3.93;;;1.80;99.90;;;;;;4998652;28;20209;-80
2022/01/09 08:22:08;;;;;;;4.60;3.27;;;1.90;99.90;;;;;;5000037;28;20220;-80
2022/01/09 08:24:35;;;;;;;7.33;3.97;;;1.90;99.90;;;;;;4990717;28;20196;-78
2022/01/09 08:27:01;;;;;;;10.00;7.20;;;1.90;99.90;;;;;;4982783;28;20255;-79
2022/01/09 08:29:27;;;;;;;5.83;4.20;;;1.90;99.90;;;;;;4981588;28;20211;-80
2022/01/09 08:31:53;;;;;;;5.40;4.13;;;1.90;99.90;;;;;;4982004;28;20235;-78
2022/01/09 08:34:18;;;;;;;7.83;4.83;;;1.90;99.90;;;;;;4981135;28;20230;-80
2022/01/09 08:36:44;;;;;;;12.63;8.17;;;1.90;99.90;;;;;;4995570;28;20188;-79
2022/01/09 08:39:10;;;;;;;19.97;11.93;;;1.90;99.90;;;;;;4980301;28;21562;-78
2022/01/09 08:41:37;;;;;;;5.97;5.07;;;1.90;99.90;;;;;;4996621;28;20228;-78
2022/01/09 08:44:04;;;;;;;16.07;11.13;;;2.00;99.90;;;;;;4981258;28;20212;-80
2022/01/09 08:46:32;;;;;;;16.73;10.60;;;2.00;99.90;;;;;;4979026;28;20987;-79
2022/01/09 08:49:02;;;;;;;9.83;6.40;;;2.00;99.90;;;;;;4980416;28;20204;-79
2022/01/09 08:51:28;;;;;;;26.83;17.87;;;2.00;99.90;;;;;;4982800;28;20276;-79
2022/01/09 08:53:54;;;;;;;12.43;8.73;;;2.00;99.90;;;;;;4982661;28;20518;-79
2022/01/09 08:56:22;;;;;;;9.90;8.03;;;2.10;99.90;;;;;;4981521;28;20651;-78
2022/01/09 08:58:48;;;;;;;33.03;20.87;;;2.10;99.90;;;;;;4980920;28;20192;-79
2022/01/09 09:01:15;;;;;;;8.53;6.27;;;2.20;99.90;;;;;;4970600;28;20196;-79
2022/01/09 09:03:41;;;;;;;3.53;3.20;;;2.20;99.90;;;;;;4995672;28;20183;-79
2022/01/09 09:06:12;;;;;;;5.80;3.40;;;2.30;99.90;;;;;;4980572;28;20177;-79
2022/01/09 09:08:38;;;;;;;4.90;3.17;;;2.30;99.90;;;;;;4978615;28;20213;-79
2022/01/09 09:11:06;;;;;;;5.30;4.20;;;2.40;99.90;;;;;;4977879;28;20283;-79
2022/01/09 09:13:32;;;;;;;6.10;4.60;;;2.50;99.90;;;;;;4981210;28;20220;-78
2022/01/09 09:15:58;;;;;;;4.67;3.30;;;2.70;99.90;;;;;;4983855;28;20540;-79
2022/01/09 09:18:24;;;;;;;3.83;3.17;;;2.70;99.90;;;;;;4981795;28;20185;-79
2022/01/09 09:20:50;;;;;;;3.13;2.83;;;2.70;99.90;;;;;;4983420;28;21092;-78
2022/01/09 09:23:15;;;;;;;3.37;2.83;;;2.80;99.90;;;;;;4985043;28;20220;-79
2022/01/09 09:25:41;;;;;;;4.73;2.37;;;2.80;99.90;;;;;;4984798;28;20196;-78
2022/01/09 09:28:07;;;;;;;3.30;2.77;;;2.90;99.90;;;;;;4988329;28;20193;-79
2022/01/09 09:30:33;;;;;;;3.03;2.60;;;2.90;99.90;;;;;;4988154;28;20212;-79
2022/01/09 09:32:58;;;;;;;2.67;2.07;;;3.00;99.90;;;;;;4984508;28;20288;-79
2022/01/09 09:35:24;;;;;;;3.37;2.63;;;3.10;99.90;;;;;;4986495;28;20212;-78
2022/01/09 09:37:49;;;;;;;3.97;3.07;;;3.00;99.90;;;;;;4978105;28;20184;-78
2022/01/09 09:40:15;;;;;;;1.87;1.57;;;3.10;99.90;;;;;;4981991;28;20188;-79
2022/01/09 09:42:41;;;;;;;1.47;1.37;;;3.20;99.90;;;;;;4984234;28;20231;-79
2022/01/09 09:45:09;;;;;;;1.20;1.10;;;3.20;99.90;;;;;;4983759;28;20189;-78
2022/01/09 09:47:36;;;;;;;0.70;0.70;;;3.20;99.90;;;;;;4982261;28;20188;-79
2022/01/09 09:50:08;;;;;;;0.73;0.70;;;3.30;99.90;;;;;;4985837;28;20184;-79
2022/01/09 09:52:33;;;;;;;1.20;1.10;;;3.30;99.90;;;;;;4988645;28;20219;-79
2022/01/09 09:55:00;;;;;;;1.40;0.80;;;3.30;99.90;;;;;;4989729;28;20189;-79
2022/01/09 09:57:26;;;;;;;1.03;0.93;;;3.30;99.90;;;;;;4989468;28;20203;-78
2022/01/09 10:00:00;;;;;;;0.90;0.70;;;3.20;99.90;;;;;;4987380;28;20188;-78
2022/01/09 10:02:38;;;;;;;0.77;0.77;;;3.20;99.90;;;;;;4983496;28;20227;-79
2022/01/09 10:05:05;;;;;;;1.40;0.90;;;3.20;99.90;;;;;;5000716;28;20239;-78
2022/01/09 10:07:32;;;;;;;0.83;0.83;;;3.10;99.90;;;;;;4987893;28;20513;-78
2022/01/09 10:10:10;;;;;;;0.80;0.80;;;3.10;99.90;;;;;;5002659;28;20203;-79
2022/01/09 10:12:36;;;;;;;1.20;1.00;;;3.10;99.90;;;;;;4987900;28;20189;-79
2022/01/09 10:15:06;;;;;;;1.30;1.20;;;3.00;99.90;;;;;;4990814;28;20199;-78
2022/01/09 10:17:32;;;;;;;2.50;1.20;;;3.00;99.90;;;;;;4988412;28;20189;-78
2022/01/09 10:20:03;;;;;;;1.20;1.10;;;3.00;99.90;;;;;;4988466;28;20185;-79
2022/01/09 10:22:44;;;;;;;1.20;1.00;;;3.00;99.90;;;;;;5006584;28;20248;-79
2022/01/09 10:25:36;;;;;;;1.37;1.27;;;3.00;99.90;;;;;;5004255;28;20189;-78
2022/01/09 10:28:20;;;;;;;2.30;1.70;;;3.00;99.90;;;;;;4988501;28;20200;-78
2022/01/09 10:30:51;;;;;;;2.30;1.50;;;2.90;99.90;;;;;;4986691;28;20209;-78
2022/01/09 10:33:26;;;;;;;1.37;1.10;;;2.80;99.90;;;;;;4988188;28;20212;-79
2022/01/09 10:35:52;;;;;;;1.27;1.17;;;2.80;99.90;;;;;;4988969;28;20574;-78
2022/01/09 10:38:22;;;;;;;1.37;0.97;;;2.70;99.90;;;;;;4982877;28;21076;-79
2022/01/09 10:40:56;;;;;;;2.60;1.00;;;2.60;99.90;;;;;;5002681;28;20828;-79
2022/01/09 10:43:35;;;;;;;1.23;0.90;;;2.60;99.90;;;;;;4988082;28;20208;-79
2022/01/09 10:46:01;;;;;;;1.17;0.90;;;2.60;99.90;;;;;;4986227;28;20177;-79
2022/01/09 10:48:34;;;;;;;1.10;1.00;;;2.50;99.90;;;;;;4987784;28;20180;-79
2022/01/09 10:51:02;;;;;;;1.07;0.97;;;2.50;99.90;;;;;;4984605;28;20215;-79
2022/01/09 10:53:32;;;;;;;1.97;0.83;;;2.50;99.90;;;;;;4990025;28;20180;-78
2022/01/09 10:56:20;;;;;;;1.37;1.00;;;2.40;99.90;;;;;;5004301;28;20189;-79
2022/01/09 10:58:57;;;;;;;1.87;1.50;;;2.40;99.90;;;;;;5002974;28;20204;-79
2022/01/09 11:01:27;;;;;;;2.67;1.90;;;2.40;99.90;;;;;;4996829;28;20223;-79
2022/01/09 11:03:55;;;;;;;3.07;1.70;;;2.40;99.90;;;;;;4985853;28;20562;-78
2022/01/09 11:06:22;;;;;;;2.50;1.37;;;2.40;99.90;;;;;;4989925;28;20205;-77
2022/01/09 11:08:50;;;;;;;1.23;1.10;;;2.40;99.90;;;;;;4992638;28;20604;-77
2022/01/09 11:11:26;;;;;;;1.73;1.30;;;2.40;99.90;;;;;;4988062;28;20263;-77
2022/01/09 11:13:54;;;;;;;1.13;1.03;;;2.40;99.90;;;;;;4997280;28;20734;-78
2022/01/09 11:16:33;;;;;;;1.50;1.37;;;2.40;99.90;;;;;;4988950;28;20183;-79
2022/01/09 11:19:14;;;;;;;1.10;1.00;;;2.40;99.90;;;;;;4986665;28;20184;-77
2022/01/09 11:21:41;;;;;;;1.57;1.30;;;2.50;99.90;;;;;;4990924;28;20232;-79
2022/01/09 11:24:13;;;;;;;0.93;0.93;;;2.60;99.90;;;;;;4993851;28;20191;-77
2022/01/09 11:27:16;;;;;;;1.20;1.10;;;2.60;99.90;;;;;;4992131;28;20195;-79
2022/01/09 11:30:03;;;;;;;0.90;0.90;;;2.70;99.90;;;;;;4988989;28;20196;-79
2022/01/09 11:33:08;;;;;;;1.50;1.20;;;2.60;99.90;;;;;;4989595;28;20312;-78
2022/01/09 11:36:08;;;;;;;1.60;0.60;;;2.60;99.90;;;;;;4981308;28;20260;-78
2022/01/09 11:39:11;;;;;;;0.80;0.80;;;2.70;99.90;;;;;;4991634;28;20289;-77
2022/01/09 11:41:41;;;;;;;1.97;1.50;;;2.70;99.90;;;;;;4990115;28;20210;-77
2022/01/09 11:44:10;;;;;;;1.50;1.23;;;2.70;99.90;;;;;;4988427;28;20199;-77
2022/01/09 11:46:55;;;;;;;1.07;0.97;;;2.70;99.90;;;;;;4988611;28;20176;-77
2022/01/09 11:49:21;;;;;;;1.10;1.00;;;2.80;99.90;;;;;;4981019;28;20189;-77
2022/01/09 11:51:52;;;;;;;4.10;2.53;;;2.80;99.90;;;;;;4984864;28;20288;-77
2022/01/09 11:54:19;;;;;;;8.10;4.93;;;2.80;99.90;;;;;;4986272;28;20189;-77
2022/01/09 11:57:10;;;;;;;11.17;8.03;;;2.80;99.90;;;;;;4986459;28;20184;-79
2022/01/09 11:59:38;;;;;;;8.13;7.00;;;2.80;99.90;;;;;;4983205;28;20252;-77
2022/01/09 12:02:16;;;;;;;5.57;4.33;;;2.80;99.90;;;;;;5001151;28;20216;-77
2022/01/09 12:04:42;;;;;;;2.50;1.80;;;2.80;99.90;;;;;;5001870;28;20224;-78
2022/01/09 12:07:27;;;;;;;9.57;5.33;;;2.90;99.90;;;;;;4992295;28;20193;-78
2022/01/09 12:09:53;;;;;;;2.97;2.17;;;3.00;99.90;;;;;;4983791;28;20180;-79
2022/01/09 12:12:31;;;;;;;2.93;2.30;;;2.90;99.90;;;;;;4983653;28;20691;-77
2022/01/09 12:15:05;;;;;;;2.83;1.97;;;3.00;99.90;;;;;;4978858;28;20185;-78
2022/01/09 12:17:34;;;;;;;3.10;2.40;;;2.90;99.90;;;;;;4995803;28;20185;-78
2022/01/09 12:20:13;;;;;;;4.33;3.33;;;2.90;99.90;;;;;;4976910;28;20498;-78
2022/01/09 12:22:48;;;;;;;3.57;2.37;;;2.90;99.90;;;;;;4977062;28;20235;-77
2022/01/09 12:25:26;;;;;;;2.23;2.00;;;2.90;99.90;;;;;;4981280;28;20267;-77
2022/01/09 12:28:04;;;;;;;5.70;4.50;;;2.90;99.90;;;;;;4984476;28;20189;-77
2022/01/09 12:30:41;;;;;;;6.13;5.53;;;3.00;99.90;;;;;;4974727;28;20755;-77
2022/01/09 12:33:22;;;;;;;5.40;4.77;;;3.00;99.90;;;;;;4987728;28;20573;-76
2022/01/09 12:35:54;;;;;;;3.43;3.07;;;3.00;99.90;;;;;;4989503;28;20188;-78
2022/01/09 12:38:23;;;;;;;4.67;3.90;;;3.20;99.90;;;;;;4991520;28;20228;-77
2022/01/09 12:40:56;;;;;;;6.00;2.47;;;3.20;99.90;;;;;;4973372;28;20205;-77
2022/01/09 12:43:23;;;;;;;4.10;2.50;;;3.40;99.90;;;;;;4973310;28;20208;-77
2022/01/09 12:45:49;;;;;;;5.73;3.00;;;3.50;99.90;;;;;;4984255;28;20192;-76
2022/01/09 12:48:21;;;;;;;8.37;2.97;;;3.60;99.90;;;;;;4979910;28;20208;-78
2022/01/09 12:50:48;;;;;;;4.40;2.80;;;3.70;99.90;;;;;;4974060;28;20197;-79
2022/01/09 12:53:15;;;;;;;7.13;2.63;;;3.80;99.90;;;;;;4974043;28;20279;-77
2022/01/09 12:56:01;;;;;;;6.57;2.97;;;3.80;99.90;;;;;;4976123;28;20200;-76
2022/01/09 12:58:35;;;;;;;8.23;2.80;;;3.90;99.90;;;;;;4972203;28;20304;-78
2022/01/09 13:01:04;;;;;;;4.53;3.00;;;4.00;99.90;;;;;;4978727;28;20204;-78
2022/01/09 13:03:31;;;;;;;5.50;2.67;;;4.10;99.90;;;;;;4974809;28;20222;-76